Time;durP1;ratioP1;P1;durP2;ratioP2;P2;SDS_P1;SDS_P2;PMS_P1;PMS_P2;Temp;Humidity;BMP_temperature;BMP_pressure;BME280_temperature;BME280_humidity;BME280_pressure;Samples;Min_cycle;Max_cycle;Signal;HPM_P1;HPM_P2
2023/09/02 00:00:56;;;;;;;3.22;2.65;;;15.80;99.90;;;;;;5039430;28;20432;-67
2023/09/02 00:03:28;;;;;;;3.15;2.53;;;15.80;99.90;;;;;;5036516;28;20041;-67
2023/09/02 00:06:00;;;;;;;4.32;2.90;;;15.90;99.90;;;;;;5036803;28;20436;-66
2023/09/02 00:08:27;;;;;;;3.97;3.03;;;15.80;99.90;;;;;;5036170;28;20712;-67
2023/09/02 00:10:59;;;;;;;3.42;2.38;;;15.80;99.90;;;;;;5028998;28;20050;-66
2023/09/02 00:13:30;;;;;;;3.78;2.75;;;15.80;99.90;;;;;;5032430;28;20056;-67
2023/09/02 00:15:57;;;;;;;3.78;3.35;;;15.80;99.90;;;;;;5036034;28;20095;-66
2023/09/02 00:18:29;;;;;;;4.18;3.38;;;15.90;99.90;;;;;;5039372;28;20128;-67
2023/09/02 00:21:02;;;;;;;3.33;2.78;;;15.80;99.90;;;;;;5033806;28;20506;-66
2023/09/02 00:23:34;;;;;;;4.53;3.13;;;15.80;99.90;;;;;;5024940;28;20128;-67
2023/09/02 00:26:06;;;;;;;3.63;2.90;;;15.80;99.90;;;;;;5037760;28;20044;-67
2023/09/02 00:28:32;;;;;;;4.65;2.63;;;15.80;99.90;;;;;;5039676;28;20129;-67
2023/09/02 00:30:59;;;;;;;7.57;3.00;;;15.80;99.90;;;;;;5037025;28;20128;-67
2023/09/02 00:33:31;;;;;;;4.07;2.65;;;15.80;99.90;;;;;;5042064;28;20041;-66
2023/09/02 00:36:03;;;;;;;3.97;2.58;;;15.80;99.90;;;;;;5033115;28;20421;-67
2023/09/02 00:38:36;;;;;;;4.18;2.80;;;15.80;99.90;;;;;;5031714;28;20390;-67
2023/09/02 00:41:14;;;;;;;3.47;2.78;;;15.80;99.90;;;;;;5046764;28;20052;-67
2023/09/02 00:43:46;;;;;;;5.07;2.70;;;15.70;99.90;;;;;;5042022;28;20529;-67
2023/09/02 00:46:19;;;;;;;3.08;2.25;;;15.70;99.90;;;;;;5019296;28;20514;-67
2023/09/02 00:48:46;;;;;;;3.13;2.38;;;15.80;99.90;;;;;;5035552;28;20136;-67
2023/09/02 00:51:18;;;;;;;4.47;2.63;;;15.80;99.90;;;;;;5036514;28;20045;-65
2023/09/02 00:53:50;;;;;;;2.42;2.22;;;15.80;99.90;;;;;;5041136;28;20505;-67
2023/09/02 00:56:17;;;;;;;3.58;2.45;;;15.70;99.90;;;;;;5042605;28;20549;-66
2023/09/02 00:58:49;;;;;;;3.50;2.60;;;15.70;99.90;;;;;;5036946;28;20053;-67
2023/09/02 01:01:21;;;;;;;3.08;2.65;;;15.70;99.90;;;;;;5030778;28;20052;-67
2023/09/02 01:03:53;;;;;;;4.55;2.92;;;15.70;99.90;;;;;;5034802;28;20049;-67
2023/09/02 01:06:28;;;;;;;3.70;2.92;;;15.70;99.90;;;;;;5033657;28;20049;-67
2023/09/02 01:08:55;;;;;;;4.53;2.70;;;15.60;99.90;;;;;;5018584;28;20099;-67
2023/09/02 01:11:21;;;;;;;3.17;2.40;;;15.60;99.90;;;;;;5039322;28;20040;-67
2023/09/02 01:13:48;;;;;;;3.85;3.15;;;15.60;99.90;;;;;;5034034;28;20113;-67
2023/09/02 01:16:20;;;;;;;4.60;3.00;;;15.60;99.90;;;;;;5020851;28;20059;-67
2023/09/02 01:18:52;;;;;;;3.85;2.63;;;15.60;99.90;;;;;;5042256;28;20073;-67
2023/09/02 01:21:49;;;;;;;4.10;2.73;;;15.60;99.90;;;;;;5018547;28;20517;-67
2023/09/02 01:24:48;;;;;;;3.85;2.65;;;15.50;99.90;;;;;;5039354;28;20056;-66
2023/09/02 01:27:26;;;;;;;3.92;2.45;;;15.50;99.90;;;;;;5038252;28;20045;-66
2023/09/02 01:30:09;;;;;;;4.93;2.95;;;15.50;99.90;;;;;;5022997;28;20037;-67
2023/09/02 01:32:42;;;;;;;4.28;2.58;;;15.50;99.90;;;;;;5026494;28;20059;-67
2023/09/02 01:35:19;;;;;;;4.18;2.65;;;15.40;99.90;;;;;;5029903;28;20061;-66
2023/09/02 01:37:55;;;;;;;3.17;2.80;;;15.30;99.90;;;;;;5036586;28;20046;-67
2023/09/02 01:40:28;;;;;;;3.33;2.95;;;15.40;99.90;;;;;;5035132;28;20041;-67
2023/09/02 01:43:02;;;;;;;5.60;2.95;;;15.30;99.90;;;;;;5037763;28;20601;-67
2023/09/02 01:45:35;;;;;;;5.00;2.67;;;15.30;99.90;;;;;;5036452;28;20100;-66
2023/09/02 01:48:08;;;;;;;;;;;15.30;99.90;;;;;;5029829;28;20048;-67
2023/09/02 01:50:41;;;;;;;4.18;2.63;;;15.40;99.90;;;;;;5041147;28;19971;-66
2023/09/02 01:53:14;;;;;;;;;;;15.40;99.90;;;;;;5034175;28;20078;-67
2023/09/02 01:55:47;;;;;;;3.70;2.55;;;15.40;99.90;;;;;;5037773;28;19960;-67
2023/09/02 01:58:20;;;;;;;5.28;2.70;;;15.30;99.90;;;;;;5026017;28;20106;-67
2023/09/02 02:00:51;;;;;;;4.10;2.83;;;15.30;99.90;;;;;;5036346;28;20045;-67
2023/09/02 02:03:34;;;;;;;3.47;2.95;;;15.30;99.90;;;;;;5022331;28;20092;-67
2023/09/02 02:06:09;;;;;;;4.55;2.95;;;15.30;99.90;;;;;;5034978;28;20039;-67
2023/09/02 02:09:04;;;;;;;3.33;2.60;;;15.30;99.90;;;;;;5028694;28;20049;-67
2023/09/02 02:11:35;;;;;;;6.40;3.90;;;15.30;99.90;;;;;;5029530;28;20065;-66
2023/09/02 02:14:07;;;;;;;4.13;2.83;;;15.30;99.90;;;;;;5034324;28;20065;-67
2023/09/02 02:16:39;;;;;;;4.05;2.70;;;15.30;99.90;;;;;;5019152;28;20041;-67
2023/09/02 02:19:11;;;;;;;4.63;2.90;;;15.20;99.90;;;;;;5026566;28;20053;-66
2023/09/02 02:21:38;;;;;;;2.92;2.65;;;15.20;99.90;;;;;;5035756;28;20044;-67
2023/09/02 02:24:05;;;;;;;3.47;2.78;;;15.20;99.90;;;;;;5035236;28;20470;-67
2023/09/02 02:26:32;;;;;;;4.55;3.58;;;15.20;99.90;;;;;;5032142;28;20132;-67
2023/09/02 02:29:03;;;;;;;6.70;2.83;;;15.20;99.90;;;;;;5034200;28;20049;-67
2023/09/02 02:31:36;;;;;;;3.50;3.05;;;15.10;99.90;;;;;;5037229;28;20120;-67
2023/09/02 02:34:08;;;;;;;3.97;3.10;;;15.20;99.90;;;;;;5039393;28;20096;-67
2023/09/02 02:36:40;;;;;;;7.05;2.80;;;15.10;99.90;;;;;;5045103;28;20298;-67
2023/09/02 02:39:12;;;;;;;4.53;3.10;;;15.10;99.90;;;;;;5035598;28;20080;-67
2023/09/02 02:41:44;;;;;;;3.75;2.83;;;15.10;99.90;;;;;;5024264;28;20057;-67
2023/09/02 02:44:11;;;;;;;3.55;3.10;;;15.10;99.90;;;;;;5040546;28;20042;-66
2023/09/02 02:46:43;;;;;;;5.55;3.00;;;15.00;99.90;;;;;;5045523;28;20052;-67
2023/09/02 02:49:15;;;;;;;4.63;2.47;;;14.90;99.90;;;;;;5029511;28;20049;-67
2023/09/02 02:51:46;;;;;;;3.28;2.60;;;14.80;99.90;;;;;;5050969;28;20038;-67
2023/09/02 02:57:18;;;;;;;3.53;2.30;;;14.70;99.90;;;;;;5017170;28;20128;-66
2023/09/02 02:59:53;;;;;;;4.07;2.47;;;14.70;99.90;;;;;;5010464;28;20053;-65
2023/09/02 03:02:24;;;;;;;3.47;2.25;;;14.70;99.90;;;;;;5020407;28;20136;-66
2023/09/02 03:04:56;;;;;;;4.18;2.20;;;14.70;99.90;;;;;;5002364;28;20057;-66
2023/09/02 03:07:29;;;;;;;2.65;2.20;;;14.60;99.90;;;;;;5007061;28;20042;-66
2023/09/02 03:10:01;;;;;;;5.38;2.40;;;14.60;99.90;;;;;;5010987;28;20042;-67
2023/09/02 03:12:33;;;;;;;3.60;2.58;;;14.60;99.90;;;;;;4999863;28;20061;-66
2023/09/02 03:15:07;;;;;;;3.80;2.40;;;14.60;99.90;;;;;;5010688;28;20052;-66
2023/09/02 03:17:35;;;;;;;3.33;2.75;;;14.60;99.90;;;;;;5018244;28;20117;-67
2023/09/02 03:20:08;;;;;;;4.93;2.30;;;14.60;99.90;;;;;;5008266;28;20093;-66
2023/09/02 03:22:41;;;;;;;2.67;2.05;;;14.60;99.90;;;;;;5009340;28;20042;-66
2023/09/02 03:25:13;;;;;;;5.97;3.13;;;14.50;99.90;;;;;;5009051;28;20046;-66
2023/09/02 03:27:45;;;;;;;4.03;2.70;;;14.50;99.90;;;;;;5002284;28;20042;-66
2023/09/02 03:30:17;;;;;;;5.40;2.78;;;14.50;99.90;;;;;;5004108;28;20042;-66
2023/09/02 03:32:50;;;;;;;3.75;2.42;;;14.50;99.90;;;;;;5005801;28;20057;-65
2023/09/02 03:35:22;;;;;;;4.20;2.78;;;14.50;99.90;;;;;;5016725;28;20046;-66
2023/09/02 03:37:48;;;;;;;4.68;2.25;;;14.50;99.90;;;;;;5010376;28;20132;-66
2023/09/02 03:40:20;;;;;;;2.90;2.60;;;14.50;99.90;;;;;;5010404;28;20391;-66
2023/09/02 03:42:52;;;;;;;4.70;2.47;;;14.50;99.90;;;;;;5010441;28;20526;-66
2023/09/02 03:45:24;;;;;;;3.33;2.35;;;14.40;99.90;;;;;;5018228;28;20121;-66
2023/09/02 03:47:53;;;;;;;3.95;2.90;;;14.40;99.90;;;;;;5008601;28;20527;-66
2023/09/02 03:50:26;;;;;;;4.72;2.67;;;14.40;99.90;;;;;;5009262;28;20041;-66
2023/09/02 03:52:59;;;;;;;3.92;2.63;;;14.40;99.90;;;;;;5009391;28;20042;-66
2023/09/02 03:55:31;;;;;;;3.22;2.47;;;14.40;99.90;;;;;;5000232;28;20050;-66
2023/09/02 03:58:03;;;;;;;3.72;2.42;;;14.40;99.90;;;;;;5007462;28;20049;-66
2023/09/02 04:00:35;;;;;;;2.80;2.38;;;14.40;99.90;;;;;;4994898;28;20057;-66
2023/09/02 04:03:02;;;;;;;3.28;2.40;;;14.40;99.90;;;;;;5009348;28;20065;-66
2023/09/02 04:05:34;;;;;;;6.18;2.88;;;14.40;99.90;;;;;;5023179;28;20550;-66
2023/09/02 04:08:06;;;;;;;4.43;2.80;;;14.40;99.90;;;;;;4996488;28;20514;-66
2023/09/02 04:10:39;;;;;;;3.58;2.60;;;14.40;99.90;;;;;;5018643;28;20085;-66
2023/09/02 04:13:11;;;;;;;5.97;2.85;;;14.40;99.90;;;;;;5008694;28;20057;-66
2023/09/02 04:15:43;;;;;;;4.25;2.97;;;14.40;99.90;;;;;;5007963;28;20042;-65
2023/09/02 04:18:14;;;;;;;3.65;2.92;;;14.40;99.90;;;;;;5004190;28;20077;-66
2023/09/02 04:20:46;;;;;;;3.45;2.50;;;14.40;99.90;;;;;;5015590;28;20054;-66
2023/09/02 04:23:21;;;;;;;4.65;2.92;;;14.40;99.90;;;;;;4994437;28;20043;-66
2023/09/02 04:25:51;;;;;;;4.47;2.75;;;14.40;99.90;;;;;;4992999;28;20412;-66
2023/09/02 04:28:20;;;;;;;3.22;2.60;;;14.30;99.90;;;;;;5008189;28;20112;-66
2023/09/02 04:30:56;;;;;;;2.90;2.63;;;14.30;99.90;;;;;;5003525;28;20398;-66
2023/09/02 04:33:31;;;;;;;5.45;2.35;;;14.30;99.90;;;;;;5019104;28;20519;-65
2023/09/02 04:36:04;;;;;;;4.57;2.38;;;14.20;99.90;;;;;;5000554;28;20046;-66
2023/09/02 04:38:35;;;;;;;3.53;2.70;;;14.20;99.90;;;;;;5007024;28;20052;-66
2023/09/02 04:41:08;;;;;;;6.13;2.90;;;14.20;99.90;;;;;;4987331;28;20042;-65
2023/09/02 04:43:41;;;;;;;4.10;2.42;;;14.20;99.90;;;;;;5014569;28;20294;-65
2023/09/02 04:46:13;;;;;;;3.17;2.65;;;14.20;99.90;;;;;;5010582;28;20050;-66
2023/09/02 04:48:47;;;;;;;3.22;2.67;;;14.20;99.90;;;;;;5010195;28;20401;-66
2023/09/02 04:51:19;;;;;;;3.13;2.80;;;14.20;99.90;;;;;;5012162;28;20519;-66
2023/09/02 04:53:51;;;;;;;3.40;2.90;;;14.20;99.90;;;;;;5017080;28;20042;-66
2023/09/02 04:56:24;;;;;;;3.88;2.53;;;14.10;99.90;;;;;;5005382;28;20038;-65
2023/09/02 04:58:52;;;;;;;4.38;2.70;;;14.20;99.90;;;;;;5003210;28;20076;-66
2023/09/02 05:01:22;;;;;;;3.00;2.65;;;14.10;99.90;;;;;;5020450;28;20046;-66
2023/09/02 05:03:57;;;;;;;3.40;2.55;;;14.10;99.90;;;;;;5015927;28;20039;-66
2023/09/02 05:06:29;;;;;;;4.10;2.70;;;14.10;99.90;;;;;;4997021;28;20407;-66
2023/09/02 05:09:03;;;;;;;5.10;2.58;;;14.10;99.90;;;;;;5007795;28;20593;-66
2023/09/02 05:11:34;;;;;;;2.95;2.40;;;14.10;99.90;;;;;;5007989;28;20092;-66
2023/09/02 05:14:07;;;;;;;3.40;2.70;;;14.10;99.90;;;;;;5018336;28;20053;-66
2023/09/02 05:16:39;;;;;;;2.97;2.55;;;14.10;99.90;;;;;;5003300;28;20523;-66
2023/09/02 05:19:11;;;;;;;4.47;3.15;;;14.20;99.90;;;;;;5007449;28;20077;-67
2023/09/02 05:21:44;;;;;;;4.97;3.40;;;14.20;99.90;;;;;;5007902;28;20049;-66
2023/09/02 05:24:16;;;;;;;4.10;2.83;;;14.30;99.90;;;;;;5007159;28;20049;-66
2023/09/02 05:26:48;;;;;;;7.15;3.17;;;14.30;99.90;;;;;;5006566;28;20040;-66
2023/09/02 05:29:19;;;;;;;4.82;2.97;;;14.30;99.90;;;;;;4991906;28;20038;-66
2023/09/02 05:31:51;;;;;;;4.30;2.92;;;14.40;99.90;;;;;;5010326;28;20065;-66
2023/09/02 05:34:23;;;;;;;5.63;3.22;;;14.40;99.90;;;;;;5010025;28;20046;-66
2023/09/02 05:36:55;;;;;;;5.90;2.80;;;14.40;99.90;;;;;;5016821;28;20384;-66
2023/09/02 05:39:26;;;;;;;4.15;2.38;;;14.40;99.90;;;;;;5004304;28;20045;-65
2023/09/02 05:41:58;;;;;;;4.07;2.22;;;14.40;99.90;;;;;;5001350;28;20046;-66
2023/09/02 05:44:34;;;;;;;3.80;2.88;;;14.40;99.90;;;;;;5000864;28;20509;-66
2023/09/02 05:47:05;;;;;;;4.00;2.22;;;14.40;99.90;;;;;;5001825;28;20045;-65
2023/09/02 05:49:38;;;;;;;3.63;3.13;;;14.40;99.90;;;;;;4995519;28;20057;-66
2023/09/02 05:52:09;;;;;;;6.65;3.58;;;14.50;99.90;;;;;;5005868;28;20048;-66
2023/09/02 05:54:36;;;;;;;7.40;4.47;;;14.50;99.90;;;;;;4991235;28;20053;-66
2023/09/02 05:57:08;;;;;;;10.75;3.95;;;14.50;99.90;;;;;;5001423;28;20038;-66
2023/09/02 05:59:40;;;;;;;5.90;3.70;;;14.60;99.90;;;;;;5006089;28;20064;-66
2023/09/02 06:02:12;;;;;;;7.35;3.67;;;14.60;99.90;;;;;;5003539;28;20510;-66
2023/09/02 06:04:44;;;;;;;6.07;3.70;;;14.60;99.90;;;;;;5005039;28;20065;-66
2023/09/02 06:07:17;;;;;;;5.50;4.50;;;14.60;99.90;;;;;;5003778;28;20125;-66
2023/09/02 06:09:49;;;;;;;10.82;6.05;;;14.70;99.90;;;;;;5007271;28;20410;-67
2023/09/02 06:12:21;;;;;;;8.18;5.85;;;14.70;99.90;;;;;;5003114;28;20526;-66
2023/09/02 06:14:53;;;;;;;6.47;4.27;;;14.80;99.90;;;;;;5000689;28;20137;-67
2023/09/02 06:17:28;;;;;;;6.28;4.50;;;14.80;99.90;;;;;;4995268;28;20057;-66
2023/09/02 06:20:00;;;;;;;7.63;6.18;;;14.80;99.90;;;;;;5002181;28;20061;-66
2023/09/02 06:22:32;;;;;;;6.28;5.60;;;14.90;99.90;;;;;;4999332;28;20124;-66
2023/09/02 06:25:05;;;;;;;7.85;5.55;;;14.90;99.90;;;;;;5009684;28;20149;-66
2023/09/02 06:27:37;;;;;;;10.52;8.70;;;15.00;99.90;;;;;;5018977;28;20042;-66
2023/09/02 06:30:05;;;;;;;9.70;7.75;;;15.00;99.90;;;;;;5003312;28;20273;-66
2023/09/02 06:32:37;;;;;;;5.97;5.30;;;15.10;99.90;;;;;;5025042;28;20049;-66
2023/09/02 06:35:12;;;;;;;5.95;5.20;;;15.10;99.90;;;;;;5000159;28;20051;-66
2023/09/02 06:37:43;;;;;;;6.07;5.50;;;15.20;99.90;;;;;;5016308;28;20134;-66
2023/09/02 06:40:15;;;;;;;5.68;4.88;;;15.30;99.90;;;;;;4994975;28;20055;-66
2023/09/02 06:42:47;;;;;;;5.85;4.80;;;15.30;99.90;;;;;;4997175;28;20401;-67
2023/09/02 06:45:19;;;;;;;15.73;13.73;;;15.40;99.90;;;;;;4999271;28;20061;-67
2023/09/02 06:47:50;;;;;;;31.27;28.17;;;15.50;99.90;;;;;;5005160;28;20733;-66
2023/09/02 06:50:22;;;;;;;28.63;25.70;;;15.50;99.90;;;;;;5003867;28;20049;-66
2023/09/02 06:52:51;;;;;;;23.10;20.55;;;15.60;99.90;;;;;;5018185;28;20061;-66
2023/09/02 06:55:23;;;;;;;11.68;10.48;;;15.70;99.90;;;;;;5001984;28;20116;-66
2023/09/02 06:57:55;;;;;;;12.63;8.45;;;15.80;99.90;;;;;;5008556;28;20046;-66
2023/09/02 07:00:27;;;;;;;7.07;6.03;;;15.80;99.90;;;;;;4998349;28;20039;-66
2023/09/02 07:02:58;;;;;;;11.13;7.18;;;15.90;99.90;;;;;;5015251;28;20065;-66
2023/09/02 07:05:30;;;;;;;21.70;15.75;;;16.00;99.90;;;;;;4996928;28;20040;-66
2023/09/02 07:08:02;;;;;;;19.75;14.05;;;16.10;99.90;;;;;;4984260;28;20137;-66
2023/09/02 07:10:34;;;;;;;37.90;22.60;;;16.10;99.90;;;;;;5002395;28;20407;-66
2023/09/02 07:13:06;;;;;;;31.23;18.95;;;16.20;99.90;;;;;;5001875;28;20045;-66
2023/09/02 07:15:37;;;;;;;23.80;16.13;;;16.30;99.90;;;;;;5000217;28;20045;-66
2023/09/02 07:18:09;;;;;;;11.15;9.50;;;16.40;99.90;;;;;;5007907;28;20057;-66
2023/09/02 07:20:37;;;;;;;9.93;8.27;;;16.40;99.90;;;;;;5007242;28;20127;-66
2023/09/02 07:23:09;;;;;;;14.15;9.70;;;16.50;99.90;;;;;;4994291;28;20415;-66
2023/09/02 07:25:41;;;;;;;11.57;7.97;;;16.60;99.90;;;;;;5015958;28;20061;-66
2023/09/02 07:28:13;;;;;;;12.30;7.85;;;16.60;99.90;;;;;;4996724;28;20049;-66
2023/09/02 07:30:44;;;;;;;33.08;18.83;;;16.70;99.90;;;;;;4999828;28;20133;-66
2023/09/02 07:33:16;;;;;;;12.85;8.07;;;16.80;99.90;;;;;;5000433;28;20140;-66
2023/09/02 07:35:48;;;;;;;12.15;8.35;;;16.90;99.90;;;;;;5006181;28;20055;-66
2023/09/02 07:38:20;;;;;;;7.00;5.85;;;16.90;99.90;;;;;;5000136;28;20499;-67
2023/09/02 07:40:51;;;;;;;12.32;8.05;;;17.00;99.90;;;;;;5012364;28;20050;-66
2023/09/02 07:43:23;;;;;;;16.90;10.13;;;17.10;99.90;;;;;;5015785;28;20042;-66
2023/09/02 07:45:50;;;;;;;11.48;8.35;;;17.20;99.90;;;;;;5002175;28;20058;-66
2023/09/02 07:48:22;;;;;;;15.18;8.57;;;17.30;99.90;;;;;;4994125;28;20038;-66
2023/09/02 07:50:54;;;;;;;8.32;6.88;;;17.50;99.90;;;;;;4996946;28;20038;-66
2023/09/02 07:53:26;;;;;;;9.40;6.47;;;17.60;99.90;;;;;;4998731;28;20034;-66
2023/09/02 07:55:58;;;;;;;11.82;9.02;;;17.70;99.90;;;;;;5009283;28;20418;-66
2023/09/02 07:58:30;;;;;;;6.97;6.28;;;17.70;99.90;;;;;;5001376;28;20047;-67
2023/09/02 08:01:02;;;;;;;9.13;7.18;;;17.90;99.90;;;;;;4999560;28;20050;-66
2023/09/02 08:03:34;;;;;;;9.85;6.40;;;18.00;99.90;;;;;;4997332;28;20053;-67
2023/09/02 08:06:06;;;;;;;7.88;5.85;;;18.10;99.90;;;;;;5010674;28;20410;-66
2023/09/02 08:08:38;;;;;;;5.95;5.35;;;18.20;99.90;;;;;;5010689;28;20043;-66
2023/09/02 08:11:06;;;;;;;6.90;5.95;;;18.40;99.90;;;;;;4993878;28;20480;-66
2023/09/02 08:13:37;;;;;;;9.30;6.15;;;18.50;99.90;;;;;;5007552;28;20061;-66
2023/09/02 08:16:10;;;;;;;9.55;6.82;;;18.60;99.90;;;;;;5000349;28;20139;-66
2023/09/02 08:18:41;;;;;;;5.97;4.95;;;18.70;99.90;;;;;;5016990;28;20558;-66
2023/09/02 08:21:13;;;;;;;6.30;4.65;;;18.80;99.90;;;;;;5015810;28;20480;-66
2023/09/02 08:23:40;;;;;;;8.95;5.53;;;18.90;99.90;;;;;;4999106;28;20034;-66
2023/09/02 08:26:13;;;;;;;7.65;5.43;;;19.10;99.90;;;;;;4998305;28;20050;-67
2023/09/02 08:28:45;;;;;;;10.35;5.20;;;19.20;99.90;;;;;;4996475;28;20054;-66
2023/09/02 08:31:20;;;;;;;7.15;5.50;;;19.30;99.90;;;;;;4992439;28;20130;-66
2023/09/02 08:33:52;;;;;;;5.28;4.10;;;19.50;99.90;;;;;;5008399;28;20124;-67
2023/09/02 08:36:23;;;;;;;10.85;5.68;;;19.60;99.90;;;;;;4996223;28;20045;-66
2023/09/02 08:38:52;;;;;;;5.18;4.22;;;19.70;99.90;;;;;;4997911;28;20133;-67
2023/09/02 08:41:34;;;;;;;4.40;3.95;;;19.90;99.90;;;;;;5002961;28;20046;-66
2023/09/02 08:44:02;;;;;;;4.70;4.20;;;20.00;99.90;;;;;;5000770;28;20143;-66
2023/09/02 08:46:38;;;;;;;6.63;4.40;;;20.20;99.90;;;;;;4998362;28;20065;-67
2023/09/02 08:49:11;;;;;;;5.32;3.78;;;20.30;99.90;;;;;;4996808;28;20130;-66
2023/09/02 08:51:44;;;;;;;4.65;3.88;;;20.40;99.90;;;;;;5016987;28;20060;-66
2023/09/02 08:54:17;;;;;;;6.65;4.10;;;20.50;99.90;;;;;;4998130;28;20039;-67
2023/09/02 08:56:49;;;;;;;6.72;4.50;;;20.60;99.90;;;;;;5008702;28;20435;-66
2023/09/02 08:59:21;;;;;;;6.17;3.70;;;20.80;99.90;;;;;;4996440;28;20034;-66
2023/09/02 09:01:48;;;;;;;6.28;3.30;;;20.90;99.90;;;;;;4998221;28;20124;-67
2023/09/02 09:04:20;;;;;;;5.07;3.25;;;21.00;99.90;;;;;;5000297;28;20523;-66
2023/09/02 09:06:52;;;;;;;5.97;3.60;;;21.20;99.90;;;;;;5000768;28;20422;-66
2023/09/02 09:09:25;;;;;;;6.32;4.00;;;21.30;99.90;;;;;;4996116;28;20111;-66
2023/09/02 09:11:52;;;;;;;3.92;3.40;;;21.40;99.90;;;;;;4995522;28;20048;-66
2023/09/02 09:14:26;;;;;;;5.60;3.35;;;21.50;99.90;;;;;;5008251;28;20051;-66
2023/09/02 09:16:59;;;;;;;3.47;3.10;;;21.60;99.90;;;;;;4991825;28;20056;-66
2023/09/02 09:19:32;;;;;;;3.47;3.00;;;21.70;99.90;;;;;;5003363;28;20038;-66
2023/09/02 09:22:04;;;;;;;4.07;3.30;;;21.80;99.90;;;;;;4999739;28;20050;-66
2023/09/02 09:24:36;;;;;;;4.50;3.58;;;21.80;99.90;;;;;;4999538;28;20062;-66
2023/09/02 09:27:10;;;;;;;4.20;3.00;;;21.80;99.90;;;;;;5000440;28;20431;-66
2023/09/02 09:29:42;;;;;;;4.13;3.10;;;21.80;99.90;;;;;;5002827;28;20050;-66
2023/09/02 09:32:15;;;;;;;2.90;2.57;;;21.70;99.90;;;;;;4998636;28;20038;-66
2023/09/02 09:34:47;;;;;;;3.63;3.30;;;21.80;99.90;;;;;;5013815;28;20306;-66
2023/09/02 09:37:20;;;;;;;4.32;2.85;;;21.90;99.90;;;;;;5014687;28;20132;-66
2023/09/02 09:39:53;;;;;;;3.92;2.85;;;22.10;99.90;;;;;;4992371;28;20077;-66
2023/09/02 09:42:35;;;;;;;4.00;2.78;;;22.20;99.90;;;;;;5005936;28;20046;-66
2023/09/02 09:45:07;;;;;;;2.58;2.25;;;22.30;99.90;;;;;;5013595;28;20049;-66
2023/09/02 09:47:41;;;;;;;3.30;2.55;;;22.50;99.90;;;;;;4999094;28;20585;-66
2023/09/02 09:50:16;;;;;;;3.88;2.70;;;22.60;99.90;;;;;;5016105;28;20129;-66
2023/09/02 09:53:01;;;;;;;5.28;2.35;;;22.80;99.90;;;;;;5001961;28;20049;-66
2023/09/02 09:55:34;;;;;;;3.05;2.00;;;22.90;99.90;;;;;;4998027;28;20045;-66
2023/09/02 09:58:06;;;;;;;;;;;23.00;99.90;;;;;;4995048;28;20419;-67
2023/09/02 10:00:38;;;;;;;4.50;2.47;;;23.10;99.90;;;;;;5006645;28;19925;-66
2023/09/02 10:03:10;;;;;;;2.67;1.48;;;23.10;99.90;;;;;;4992207;28;20138;-66
2023/09/02 10:05:42;;;;;;;2.42;1.80;;;23.10;99.90;;;;;;5003767;28;20137;-66
2023/09/02 10:08:14;;;;;;;4.32;1.90;;;22.90;99.90;;;;;;5003749;28;20041;-66
2023/09/02 10:10:45;;;;;;;2.65;1.85;;;22.80;99.90;;;;;;5001112;28;20046;-67
2023/09/02 10:13:12;;;;;;;1.90;1.60;;;22.90;99.90;;;;;;5000981;28;20038;-66
2023/09/02 10:15:46;;;;;;;2.80;2.00;;;23.00;99.90;;;;;;5002832;28;20056;-66
2023/09/02 10:18:19;;;;;;;3.67;1.92;;;23.20;99.90;;;;;;4997182;28;20539;-66
2023/09/02 10:20:51;;;;;;;;;;;23.40;99.90;;;;;;4993894;28;20845;-66
2023/09/02 10:23:24;;;;;;;2.35;1.88;;;23.60;99.90;;;;;;4991378;28;19964;-66
2023/09/02 10:26:06;;;;;;;3.15;2.25;;;23.70;99.90;;;;;;4991898;28;20523;-66
2023/09/02 10:28:39;;;;;;;2.72;1.83;;;23.80;99.90;;;;;;4998013;28;20581;-66
2023/09/02 10:31:33;;;;;;;2.40;1.60;;;23.90;99.90;;;;;;5018380;28;20088;-67
2023/09/02 10:34:17;;;;;;;2.58;1.60;;;24.00;99.90;;;;;;5002649;28;20045;-66
2023/09/02 10:36:56;;;;;;;2.13;1.80;;;24.10;99.90;;;;;;5007381;28;20503;-67
2023/09/02 10:39:49;;;;;;;2.03;1.83;;;24.20;99.90;;;;;;5005895;28;20044;-66
2023/09/02 10:42:18;;;;;;;2.22;1.70;;;24.20;99.90;;;;;;4993946;28;20061;-66
2023/09/02 10:44:52;;;;;;;1.90;1.60;;;24.30;99.90;;;;;;4995378;28;20049;-66
2023/09/02 10:47:24;;;;;;;3.05;2.00;;;24.30;99.90;;;;;;5005593;28;20034;-66
2023/09/02 10:49:57;;;;;;;2.42;1.75;;;24.40;99.90;;;;;;5010590;28;20129;-66
2023/09/02 10:52:29;;;;;;;2.67;1.20;;;24.40;99.90;;;;;;5006949;28;20422;-66
2023/09/02 10:55:08;;;;;;;2.95;1.40;;;24.40;99.90;;;;;;5004658;28;20065;-66
2023/09/02 10:57:51;;;;;;;2.25;1.33;;;24.50;99.90;;;;;;5003720;28;20049;-66
2023/09/02 11:00:22;;;;;;;2.60;1.35;;;24.50;99.90;;;;;;5004515;28;20570;-66
2023/09/02 11:02:56;;;;;;;2.45;1.50;;;24.50;99.90;;;;;;5008794;28;20593;-66
2023/09/02 11:05:28;;;;;;;4.60;1.52;;;24.60;99.90;;;;;;4999607;28;20591;-66
2023/09/02 11:08:44;;;;;;;1.55;1.20;;;24.70;99.90;;;;;;5013711;28;20042;-66
2023/09/02 11:11:12;;;;;;;2.38;1.45;;;24.80;99.90;;;;;;4988975;28;20065;-66
2023/09/02 11:14:17;;;;;;;2.08;1.48;;;24.80;99.90;;;;;;4997599;28;20042;-66
2023/09/02 11:17:30;;;;;;;4.00;1.67;;;24.80;99.90;;;;;;5004668;28;20066;-66
2023/09/02 11:20:06;;;;;;;2.55;1.40;;;24.90;99.90;;;;;;5001942;28;20053;-66
2023/09/02 11:22:48;;;;;;;2.78;1.30;;;25.00;99.90;;;;;;5001405;28;20040;-66
2023/09/02 11:25:29;;;;;;;2.40;1.80;;;25.10;99.90;;;;;;5007394;28;20107;-66
2023/09/02 11:28:03;;;;;;;1.90;1.48;;;25.20;99.90;;;;;;5000077;28;20055;-66
2023/09/02 11:30:37;;;;;;;2.45;1.70;;;25.20;99.90;;;;;;4993976;28;20046;-66
2023/09/02 11:33:06;;;;;;;2.08;1.60;;;25.20;99.90;;;;;;4994676;28;20253;-66
2023/09/02 11:35:38;;;;;;;2.25;1.30;;;25.20;99.90;;;;;;5008962;28;20048;-66
2023/09/02 11:38:19;;;;;;;3.70;1.70;;;25.30;99.90;;;;;;4998993;28;20053;-66
2023/09/02 11:40:51;;;;;;;3.28;1.60;;;25.40;99.90;;;;;;5005811;28;20097;-66
2023/09/02 11:43:19;;;;;;;2.17;1.60;;;25.40;99.90;;;;;;5002023;28;20050;-66
2023/09/02 11:45:52;;;;;;;2.90;1.30;;;25.40;99.90;;;;;;4999988;28;20046;-66
2023/09/02 11:48:25;;;;;;;2.45;1.48;;;25.50;99.90;;;;;;5008775;28;20038;-66
2023/09/02 11:50:58;;;;;;;2.10;1.73;;;25.60;99.90;;;;;;5000679;28;20124;-66
2023/09/02 11:53:30;;;;;;;;;;;25.70;99.90;;;;;;4998093;28;20042;-66
2023/09/02 11:56:02;;;;;;;8.93;2.38;;;25.80;99.90;;;;;;4994432;28;19922;-66
2023/09/02 11:58:34;;;;;;;2.83;1.25;;;25.90;99.90;;;;;;5006919;28;20038;-67
2023/09/02 12:01:01;;;;;;;2.92;1.58;;;25.90;99.90;;;;;;4999561;28;20164;-66
2023/09/02 12:03:33;;;;;;;1.55;1.42;;;25.90;99.90;;;;;;5009679;28;20550;-66
2023/09/02 12:06:05;;;;;;;1.90;1.67;;;25.80;99.90;;;;;;5000592;28;20038;-66
2023/09/02 12:08:36;;;;;;;2.15;1.30;;;25.70;99.90;;;;;;5016110;28;20042;-66
2023/09/02 12:11:09;;;;;;;1.90;1.48;;;25.80;99.90;;;;;;4999712;28;20046;-66
2023/09/02 12:13:42;;;;;;;3.70;1.60;;;25.80;99.90;;;;;;5021032;28;20050;-66
2023/09/02 12:16:16;;;;;;;2.13;1.80;;;25.80;99.90;;;;;;4993964;28;20077;-66
2023/09/02 12:18:48;;;;;;;2.47;1.52;;;25.80;99.90;;;;;;5010512;28;20050;-66
2023/09/02 12:21:20;;;;;;;2.35;1.88;;;25.80;99.90;;;;;;4996639;28;20054;-66
2023/09/02 12:23:52;;;;;;;3.38;1.52;;;25.90;99.90;;;;;;4998961;28;20600;-66
2023/09/02 12:26:24;;;;;;;4.85;1.73;;;25.90;99.90;;;;;;5018430;28;20042;-66
2023/09/02 12:28:56;;;;;;;3.17;1.50;;;26.00;99.90;;;;;;5001781;28;20042;-66
2023/09/02 12:31:28;;;;;;;2.13;1.40;;;26.10;99.90;;;;;;5000099;28;20045;-66
2023/09/02 12:34:00;;;;;;;2.58;1.58;;;26.10;99.90;;;;;;4996499;28;20050;-66
2023/09/02 12:36:33;;;;;;;2.47;1.60;;;26.10;99.90;;;;;;5003417;28;20052;-66
2023/09/02 12:39:05;;;;;;;2.40;1.60;;;26.10;99.90;;;;;;5009261;28;20049;-66
2023/09/02 12:41:41;;;;;;;1.65;1.42;;;26.20;99.90;;;;;;5004514;28;20506;-66
2023/09/02 12:44:18;;;;;;;1.38;1.20;;;26.20;99.90;;;;;;4996530;28;20622;-66
2023/09/02 12:46:50;;;;;;;2.60;1.30;;;26.40;99.90;;;;;;4998935;28;20045;-66
2023/09/02 12:49:22;;;;;;;2.83;1.25;;;26.20;99.90;;;;;;5014869;28;20598;-66
2023/09/02 12:51:54;;;;;;;2.35;1.55;;;26.20;99.90;;;;;;5010107;28;20526;-66
2023/09/02 12:54:29;;;;;;;1.98;1.40;;;26.20;99.90;;;;;;4998097;28;20031;-66
2023/09/02 12:57:01;;;;;;;2.20;1.45;;;26.20;99.90;;;;;;4996055;28;20050;-66
2023/09/02 12:59:33;;;;;;;1.85;1.50;;;26.30;99.90;;;;;;5014190;28;20121;-66
2023/09/02 13:02:06;;;;;;;2.27;1.50;;;26.50;99.90;;;;;;4992456;28;20042;-66
2023/09/02 13:04:37;;;;;;;2.65;1.48;;;26.60;99.90;;;;;;4994399;28;20108;-66
2023/09/02 13:07:09;;;;;;;2.00;1.52;;;26.60;99.90;;;;;;4996139;28;20045;-66
2023/09/02 13:09:41;;;;;;;2.10;1.50;;;26.60;99.90;;;;;;5000270;28;20038;-66
2023/09/02 13:12:13;;;;;;;3.92;1.45;;;26.70;99.90;;;;;;4997781;28;20281;-66
2023/09/02 13:14:49;;;;;;;3.80;1.40;;;26.80;99.90;;;;;;4998953;28;20034;-66
2023/09/02 13:17:23;;;;;;;4.28;1.42;;;26.90;99.90;;;;;;5005310;28;20049;-67
2023/09/02 13:19:56;;;;;;;2.42;1.38;;;26.90;99.90;;;;;;5009302;28;20132;-66